createdAt,value
2022-08-31T00:01:56.713Z,2.07
2022-08-31T00:04:26.617Z,2.00
2022-08-31T00:06:55.229Z,1.87
2022-08-31T00:09:23.837Z,2.33
2022-08-31T00:11:52.213Z,2.13
2022-08-31T00:14:22.595Z,2.23
2022-08-31T00:16:51.162Z,2.50
2022-08-31T00:19:19.700Z,2.23
2022-08-31T00:21:48.308Z,2.30
2022-08-31T00:24:16.936Z,2.30
2022-08-31T00:26:45.265Z,2.13
2022-08-31T00:29:13.940Z,2.60
2022-08-31T00:31:43.884Z,2.60
2022-08-31T00:34:12.460Z,2.30
2022-08-31T00:36:40.907Z,2.20
2022-08-31T00:39:09.298Z,1.97
2022-08-31T00:41:39.173Z,2.00
2022-08-31T00:44:08.209Z,2.20
2022-08-31T00:46:37.207Z,2.10
2022-08-31T00:49:08.439Z,2.10
2022-08-31T00:51:37.786Z,2.10
2022-08-31T00:54:06.620Z,2.00
2022-08-31T00:56:35.727Z,2.10
2022-08-31T00:59:04.281Z,2.10
2022-08-31T01:01:33.118Z,2.00
2022-08-31T01:04:01.742Z,2.00
2022-08-31T01:06:31.663Z,2.00
2022-08-31T01:09:00.281Z,2.00
2022-08-31T01:11:28.668Z,2.07
2022-08-31T01:13:57.183Z,1.87
2022-08-31T01:16:26.763Z,2.00
2022-08-31T01:18:55.356Z,1.70
2022-08-31T01:21:25.657Z,2.00
2022-08-31T01:23:55.735Z,1.90
2022-08-31T01:26:24.719Z,1.77
2022-08-31T01:28:53.158Z,1.70
2022-08-31T01:31:22.143Z,1.53
2022-08-31T01:33:50.554Z,1.63
2022-08-31T01:36:19.007Z,1.50
2022-08-31T01:38:47.564Z,1.87
2022-08-31T01:41:22.932Z,1.80
2022-08-31T01:43:52.969Z,1.73
2022-08-31T01:46:21.503Z,2.00
2022-08-31T01:48:50.056Z,1.77
2022-08-31T01:51:20.352Z,1.53
2022-08-31T01:53:49.373Z,1.50
2022-08-31T01:56:19.378Z,1.73
2022-08-31T01:58:49.115Z,1.57
2022-08-31T02:01:32.772Z,1.70
2022-08-31T02:04:02.956Z,1.40
2022-08-31T02:06:31.565Z,1.60
2022-08-31T02:09:00.027Z,1.60
2022-08-31T02:11:28.566Z,1.60
2022-08-31T02:13:58.472Z,1.47
2022-08-31T02:16:26.916Z,1.70
2022-08-31T02:18:55.407Z,1.67
2022-08-31T02:21:23.726Z,1.57
2022-08-31T02:23:52.192Z,1.77
2022-08-31T02:26:20.576Z,1.60
2022-08-31T02:28:49.010Z,1.80
2022-08-31T02:31:18.821Z,1.43
2022-08-31T02:33:47.192Z,1.60
2022-08-31T02:36:15.724Z,1.93
2022-08-31T02:38:44.062Z,1.60
2022-08-31T02:41:12.467Z,1.60
2022-08-31T02:43:40.777Z,1.80
2022-08-31T02:46:09.292Z,1.90
2022-08-31T02:48:39.269Z,1.60
2022-08-31T02:51:08.236Z,1.70
2022-08-31T02:53:36.657Z,1.60
2022-08-31T02:56:05.343Z,1.73
2022-08-31T02:58:33.818Z,1.50
2022-08-31T03:01:02.252Z,1.57
2022-08-31T03:03:30.739Z,1.67
2022-08-31T03:06:00.469Z,1.67
2022-08-31T03:08:28.885Z,1.67
2022-08-31T03:10:59.483Z,2.00
2022-08-31T03:13:29.906Z,1.50
2022-08-31T03:15:58.536Z,1.73
2022-08-31T03:18:26.948Z,1.70
2022-08-31T03:20:55.383Z,1.87
2022-08-31T03:23:25.181Z,1.50
2022-08-31T03:25:53.628Z,1.77
2022-08-31T03:28:21.984Z,1.90
2022-08-31T03:30:50.604Z,1.80
2022-08-31T03:33:19.145Z,1.77
2022-08-31T03:35:47.745Z,1.80
2022-08-31T03:38:16.823Z,1.63
2022-08-31T03:40:46.819Z,1.73
2022-08-31T03:43:15.973Z,1.67
2022-08-31T03:45:44.719Z,1.90
2022-08-31T03:48:13.432Z,1.90
2022-08-31T03:50:41.827Z,1.80
2022-08-31T03:53:10.396Z,1.70
2022-08-31T03:55:39.223Z,1.90
2022-08-31T03:58:09.985Z,1.90
2022-08-31T04:00:38.364Z,1.90
2022-08-31T04:03:06.804Z,1.70
2022-08-31T04:05:35.659Z,1.83
2022-08-31T04:08:04.111Z,1.93
2022-08-31T04:10:32.555Z,1.90
2022-08-31T04:13:00.895Z,1.80
2022-08-31T04:15:31.054Z,1.80
2022-08-31T04:17:59.499Z,1.90
2022-08-31T04:20:29.636Z,1.77
2022-08-31T04:22:58.493Z,1.70
2022-08-31T04:25:26.937Z,1.83
2022-08-31T04:27:58.088Z,1.77
2022-08-31T04:30:26.770Z,1.73
2022-08-31T04:32:57.123Z,1.73
2022-08-31T04:35:25.442Z,1.50
2022-08-31T04:37:53.874Z,1.60
2022-08-31T04:40:24.816Z,1.67
2022-08-31T04:42:54.497Z,1.50
2022-08-31T04:45:23.713Z,1.77
2022-08-31T04:47:52.150Z,1.63
2022-08-31T04:50:22.689Z,1.67
2022-08-31T04:53:02.975Z,1.43
2022-08-31T04:55:31.919Z,1.50
2022-08-31T04:58:00.479Z,1.60
2022-08-31T05:00:28.935Z,1.90
2022-08-31T05:02:57.473Z,1.60
2022-08-31T05:05:27.234Z,1.70
2022-08-31T05:07:55.641Z,1.60
2022-08-31T05:10:24.742Z,1.60
2022-08-31T05:12:53.567Z,1.60
2022-08-31T05:15:21.897Z,1.30
2022-08-31T05:17:50.258Z,1.70
2022-08-31T05:20:18.939Z,1.10
2022-08-31T05:22:48.754Z,1.40
2022-08-31T05:25:17.219Z,1.27
2022-08-31T05:27:45.586Z,1.40
2022-08-31T05:30:14.502Z,1.40
2022-08-31T05:32:42.946Z,1.20
2022-08-31T05:35:11.370Z,1.30
2022-08-31T05:37:40.261Z,1.60
2022-08-31T05:40:10.992Z,1.53
2022-08-31T05:42:42.481Z,1.60
2022-08-31T05:45:11.221Z,1.20
2022-08-31T05:47:39.727Z,1.40
2022-08-31T05:50:08.599Z,1.40
2022-08-31T05:52:36.984Z,1.10
2022-08-31T05:55:05.499Z,1.27
2022-08-31T05:57:35.207Z,1.17
2022-08-31T06:00:03.875Z,1.27
2022-08-31T06:02:32.574Z,1.20
2022-08-31T06:05:01.030Z,1.10
2022-08-31T06:07:29.535Z,1.10
2022-08-31T06:09:57.876Z,1.00
2022-08-31T06:12:26.584Z,1.03
2022-08-31T06:14:56.725Z,1.03
2022-08-31T06:17:26.720Z,0.90
2022-08-31T06:20:02.616Z,1.10
2022-08-31T06:22:30.945Z,1.27
2022-08-31T06:24:59.832Z,1.20
2022-08-31T06:27:29.950Z,1.10
2022-08-31T06:30:02.174Z,1.10
2022-08-31T06:32:35.403Z,1.00
2022-08-31T06:35:04.080Z,1.40
2022-08-31T06:37:32.592Z,1.10
2022-08-31T06:40:01.640Z,1.27
2022-08-31T06:42:30.010Z,1.13
2022-08-31T06:44:59.788Z,1.20
2022-08-31T06:47:28.186Z,1.20
2022-08-31T06:49:57.284Z,1.07
2022-08-31T06:52:25.820Z,1.33
2022-08-31T06:54:54.198Z,1.27
2022-08-31T06:57:22.830Z,1.10
2022-08-31T06:59:53.665Z,1.13
2022-08-31T07:02:23.502Z,1.30
2022-08-31T07:04:51.998Z,1.00
2022-08-31T07:07:20.605Z,1.37
2022-08-31T07:09:49.409Z,1.40
2022-08-31T07:12:18.025Z,1.50
2022-08-31T07:14:50.171Z,1.40
2022-08-31T07:17:24.562Z,1.33
2022-08-31T07:19:53.102Z,1.37
2022-08-31T07:22:21.486Z,1.50
2022-08-31T07:24:50.932Z,1.30
2022-08-31T07:27:19.340Z,1.23
2022-08-31T07:29:47.909Z,1.53
2022-08-31T07:32:17.354Z,1.33
2022-08-31T07:34:50.465Z,1.27
2022-08-31T07:37:41.336Z,1.30
2022-08-31T07:40:27.839Z,1.17
2022-08-31T07:42:56.244Z,1.20
2022-08-31T07:45:29.451Z,1.20
2022-08-31T07:48:01.017Z,1.10
2022-08-31T07:50:33.490Z,1.40
2022-08-31T07:53:02.938Z,1.10
2022-08-31T07:55:31.720Z,1.00
2022-08-31T07:58:00.165Z,0.90
2022-08-31T08:00:29.252Z,1.20
2022-08-31T08:03:01.789Z,0.80
2022-08-31T08:05:38.647Z,1.30
2022-08-31T08:08:13.599Z,0.83
2022-08-31T08:10:52.078Z,0.80
2022-08-31T08:13:22.601Z,0.80
2022-08-31T08:15:52.263Z,0.90
2022-08-31T08:18:21.139Z,0.70
2022-08-31T08:20:52.229Z,0.70
2022-08-31T08:23:28.071Z,0.93
2022-08-31T08:25:57.729Z,1.00
2022-08-31T08:28:43.099Z,1.00
2022-08-31T08:31:13.442Z,0.93
2022-08-31T08:33:41.845Z,1.00
2022-08-31T08:36:11.674Z,1.00
2022-08-31T08:38:43.628Z,0.63
2022-08-31T08:41:13.760Z,0.90
2022-08-31T08:43:43.926Z,1.00
2022-08-31T08:46:33.588Z,1.10
2022-08-31T08:49:02.865Z,1.00
2022-08-31T08:51:33.472Z,1.10
2022-08-31T08:54:05.080Z,1.10
2022-08-31T08:56:34.353Z,1.00
2022-08-31T08:59:07.337Z,0.93
2022-08-31T09:01:38.547Z,1.00
2022-08-31T09:04:08.669Z,0.87
2022-08-31T09:06:45.902Z,1.30
2022-08-31T09:09:24.833Z,1.07
2022-08-31T09:11:56.018Z,1.10
2022-08-31T09:14:37.205Z,0.80
2022-08-31T09:17:06.411Z,0.97
2022-08-31T09:19:55.371Z,1.23
2022-08-31T09:22:25.097Z,1.20
2022-08-31T09:24:59.415Z,1.03
2022-08-31T09:27:47.227Z,0.90
2022-08-31T09:30:17.903Z,1.20
2022-08-31T09:32:55.525Z,1.20
2022-08-31T09:35:25.020Z,1.10
2022-08-31T09:38:02.018Z,1.03
2022-08-31T09:40:37.851Z,1.20
2022-08-31T09:43:07.684Z,1.13
2022-08-31T09:45:41.409Z,0.93
2022-08-31T09:48:10.608Z,1.33
2022-08-31T09:50:41.598Z,1.20
2022-08-31T09:53:36.342Z,1.70
2022-08-31T09:56:15.594Z,1.00
2022-08-31T09:58:44.774Z,1.57
2022-08-31T10:04:40.444Z,1.20
2022-08-31T10:17:06.027Z,1.20
2022-08-31T10:20:39.559Z,0.90
2022-08-31T10:29:00.033Z,1.37
2022-08-31T10:37:33.097Z,1.47
2022-08-31T10:44:04.268Z,1.40
2022-08-31T10:47:39.209Z,1.20
2022-08-31T10:53:43.384Z,1.40
2022-08-31T10:56:40.546Z,1.40
2022-08-31T11:02:44.785Z,1.47
2022-08-31T11:09:02.100Z,1.50
2022-08-31T11:12:29.533Z,1.40
2022-08-31T11:15:11.236Z,1.40
2022-08-31T11:18:18.861Z,1.67
2022-08-31T11:21:04.950Z,1.47
2022-08-31T11:23:44.941Z,1.50
2022-08-31T11:26:27.187Z,1.50
2022-08-31T11:28:55.907Z,1.50
2022-08-31T11:31:27.919Z,2.40
2022-08-31T11:34:15.173Z,2.30
2022-08-31T11:36:50.691Z,1.27
2022-08-31T11:39:37.118Z,1.63
2022-08-31T11:42:06.353Z,1.83
2022-08-31T11:44:53.973Z,1.67
2022-08-31T11:47:35.877Z,1.20
2022-08-31T11:50:06.163Z,1.60
2022-08-31T11:52:43.339Z,1.37
2022-08-31T11:55:20.984Z,1.40
2022-08-31T11:58:12.530Z,1.40
2022-08-31T12:00:52.315Z,1.40
2022-08-31T12:03:40.256Z,1.37
2022-08-31T12:06:10.216Z,1.20
2022-08-31T12:08:52.561Z,1.13
2022-08-31T12:11:30.365Z,1.20
2022-08-31T12:14:01.567Z,1.23
2022-08-31T12:16:37.391Z,1.13
2022-08-31T12:19:14.461Z,1.45
2022-08-31T12:22:01.765Z,1.33
2022-08-31T12:24:33.809Z,1.50
2022-08-31T12:27:10.381Z,1.55
2022-08-31T12:29:38.977Z,1.27
2022-08-31T12:32:15.716Z,1.38
2022-08-31T12:34:45.031Z,1.60
2022-08-31T12:37:20.340Z,1.40
2022-08-31T12:39:48.782Z,1.30
2022-08-31T12:42:19.211Z,1.40
2022-08-31T12:44:49.335Z,1.35
2022-08-31T12:47:23.941Z,1.40
2022-08-31T12:49:55.845Z,1.13
2022-08-31T12:52:28.292Z,1.23
2022-08-31T12:55:12.768Z,1.30
2022-08-31T12:57:50.546Z,1.40
2022-08-31T13:00:26.077Z,1.13
2022-08-31T13:02:55.698Z,1.30
2022-08-31T13:05:24.645Z,1.15
2022-08-31T13:07:53.063Z,1.25
2022-08-31T13:10:31.971Z,1.45
2022-08-31T13:13:02.610Z,1.35
2022-08-31T13:15:32.263Z,1.20
2022-08-31T13:18:02.977Z,1.52
2022-08-31T13:20:35.701Z,1.40
2022-08-31T13:23:07.011Z,1.05
2022-08-31T13:25:38.886Z,1.08
2022-08-31T13:28:10.852Z,1.20
2022-08-31T13:30:55.381Z,1.10
2022-08-31T13:33:31.531Z,1.00
2022-08-31T13:36:03.832Z,1.30
2022-08-31T13:38:43.278Z,1.00
2022-08-31T13:41:17.729Z,1.20
2022-08-31T13:43:53.886Z,1.05
2022-08-31T13:46:33.578Z,1.20
2022-08-31T13:49:12.224Z,1.27
2022-08-31T13:51:40.845Z,1.08
2022-08-31T13:54:10.813Z,1.25
2022-08-31T13:56:55.656Z,1.23
2022-08-31T13:59:36.299Z,1.23
2022-08-31T14:02:09.505Z,1.38
2022-08-31T14:04:51.253Z,1.10
2022-08-31T14:07:21.650Z,1.17
2022-08-31T14:09:50.657Z,1.00
2022-08-31T14:12:34.668Z,0.98
2022-08-31T14:15:09.147Z,1.10
2022-08-31T14:17:38.280Z,1.10
2022-08-31T14:20:25.543Z,1.23
2022-08-31T14:22:54.310Z,0.90
2022-08-31T14:25:22.665Z,1.15
2022-08-31T14:27:51.095Z,1.20
2022-08-31T14:30:21.147Z,1.10
2022-08-31T14:32:49.585Z,1.20
2022-08-31T14:35:17.943Z,0.90
2022-08-31T14:37:46.293Z,1.15
2022-08-31T14:40:14.866Z,1.08
2022-08-31T14:42:44.305Z,1.10
2022-08-31T14:45:18.589Z,0.80
2022-08-31T14:47:52.245Z,1.02
2022-08-31T14:50:23.619Z,1.23
2022-08-31T14:52:55.492Z,0.90
2022-08-31T14:55:25.095Z,1.30
2022-08-31T14:57:58.349Z,1.00
2022-08-31T15:00:29.141Z,1.35
2022-08-31T15:03:01.273Z,0.90
2022-08-31T15:05:29.999Z,1.10
2022-08-31T15:07:58.653Z,1.10
2022-08-31T15:10:27.735Z,1.10
2022-08-31T15:12:56.525Z,1.10
2022-08-31T15:15:24.864Z,1.03
2022-08-31T15:17:53.267Z,1.17
2022-08-31T15:20:23.525Z,1.07
2022-08-31T15:22:52.452Z,1.20
2022-08-31T15:25:23.082Z,1.10
2022-08-31T15:27:51.760Z,1.20
2022-08-31T15:30:20.842Z,1.20
2022-08-31T15:32:49.843Z,0.90
2022-08-31T15:35:18.895Z,1.30
2022-08-31T15:37:54.050Z,1.00
2022-08-31T15:40:22.583Z,0.90
2022-08-31T15:42:51.070Z,1.00
2022-08-31T15:45:19.481Z,1.10
2022-08-31T15:48:05.857Z,0.97
2022-08-31T15:50:36.093Z,0.97
2022-08-31T15:53:09.469Z,0.90
2022-08-31T15:55:41.156Z,1.77
2022-08-31T15:58:10.053Z,2.07
2022-08-31T16:00:38.463Z,1.47
2022-08-31T16:03:07.130Z,1.73
2022-08-31T16:05:39.133Z,1.90
2022-08-31T16:08:11.111Z,1.13
2022-08-31T16:10:40.027Z,1.20
2022-08-31T16:13:09.505Z,1.00
2022-08-31T16:15:41.066Z,1.40
2022-08-31T16:18:09.789Z,1.03
2022-08-31T16:20:39.260Z,1.10
2022-08-31T16:23:08.983Z,1.00
2022-08-31T16:25:47.920Z,1.10
2022-08-31T16:28:17.933Z,1.37
2022-08-31T16:30:47.412Z,1.10
2022-08-31T16:33:15.985Z,1.30
2022-08-31T16:35:45.823Z,1.10
2022-08-31T16:38:16.160Z,1.00
2022-08-31T16:40:44.765Z,1.00
2022-08-31T16:43:13.261Z,1.07
2022-08-31T16:45:41.748Z,1.00
2022-08-31T16:48:29.723Z,1.00
2022-08-31T16:51:02.029Z,0.87
2022-08-31T16:53:32.582Z,1.00
2022-08-31T16:56:01.508Z,1.00
2022-08-31T17:01:20.813Z,0.90
2022-08-31T17:03:49.800Z,1.90
2022-08-31T17:06:18.256Z,0.80
2022-08-31T17:08:52.089Z,1.00
2022-08-31T17:11:23.645Z,1.00
2022-08-31T17:13:52.251Z,0.80
2022-08-31T17:16:22.236Z,0.73
2022-08-31T17:18:51.590Z,1.23
2022-08-31T17:21:20.417Z,1.00
2022-08-31T17:23:52.457Z,1.53
2022-08-31T17:26:20.815Z,0.90
2022-08-31T17:28:53.074Z,0.80
2022-08-31T17:31:21.538Z,1.10
2022-08-31T17:33:49.996Z,1.00
2022-08-31T17:36:20.007Z,1.00
2022-08-31T17:38:52.328Z,1.23
2022-08-31T17:41:20.777Z,1.00
2022-08-31T17:43:49.232Z,1.40
2022-08-31T17:46:17.752Z,0.90
2022-08-31T17:48:46.983Z,1.20
2022-08-31T17:51:26.410Z,1.50
2022-08-31T17:53:59.764Z,1.20
2022-08-31T17:56:33.725Z,1.00
2022-08-31T17:59:02.263Z,1.10
2022-08-31T18:01:31.415Z,1.30
2022-08-31T18:04:02.598Z,1.00
2022-08-31T18:06:30.992Z,1.13
2022-08-31T18:09:01.191Z,1.30
2022-08-31T18:11:30.332Z,1.80
2022-08-31T18:13:58.656Z,1.63
2022-08-31T18:16:27.123Z,1.30
2022-08-31T18:18:55.606Z,1.07
2022-08-31T18:21:26.924Z,0.97
2022-08-31T18:23:55.523Z,1.07
2022-08-31T18:26:25.916Z,1.20
2022-08-31T18:28:54.234Z,1.00
2022-08-31T18:31:28.210Z,1.20
2022-08-31T18:33:56.981Z,1.03
2022-08-31T18:36:25.885Z,1.27
2022-08-31T18:38:58.100Z,1.00
2022-08-31T18:41:46.785Z,1.27
2022-08-31T18:44:33.047Z,1.03
2022-08-31T18:47:02.159Z,1.10
2022-08-31T18:49:34.300Z,0.90
2022-08-31T18:52:02.739Z,1.00
2022-08-31T18:54:31.912Z,1.60
2022-08-31T18:57:01.791Z,1.03
2022-08-31T18:59:30.354Z,1.00
2022-08-31T19:01:58.951Z,1.00
2022-08-31T19:04:27.756Z,1.30
2022-08-31T19:06:56.373Z,1.10
2022-08-31T19:12:24.659Z,1.13
2022-08-31T19:14:55.484Z,1.20
2022-08-31T19:17:24.210Z,1.30
2022-08-31T19:19:54.408Z,0.90
2022-08-31T19:22:23.158Z,1.33
2022-08-31T19:24:51.534Z,1.20
2022-08-31T19:27:19.896Z,1.10
2022-08-31T19:29:50.977Z,1.20
2022-08-31T19:32:21.552Z,1.00
2022-08-31T19:34:50.040Z,1.03
2022-08-31T19:37:18.526Z,1.67
2022-08-31T19:39:47.077Z,1.33
2022-08-31T19:42:16.402Z,1.30
2022-08-31T19:44:55.842Z,1.47
2022-08-31T19:47:38.802Z,1.80
2022-08-31T19:50:13.550Z,2.23
2022-08-31T19:52:42.301Z,1.80
2022-08-31T19:55:11.287Z,1.67
2022-08-31T19:57:39.943Z,1.57
2022-08-31T20:00:10.196Z,1.60
2022-08-31T20:02:42.082Z,1.50
2022-08-31T20:05:15.259Z,1.50
2022-08-31T20:07:45.318Z,1.80
2022-08-31T20:10:14.658Z,1.87
2022-08-31T20:12:44.877Z,1.73
2022-08-31T20:15:15.573Z,1.60
2022-08-31T20:17:48.009Z,1.70
2022-08-31T20:20:16.400Z,1.40
2022-08-31T20:22:46.500Z,1.87
2022-08-31T20:25:18.036Z,1.50
2022-08-31T20:27:50.492Z,1.50
2022-08-31T20:30:21.680Z,1.60
2022-08-31T20:32:51.549Z,1.50
2022-08-31T20:35:20.335Z,1.63
2022-08-31T20:37:49.446Z,1.60
2022-08-31T20:40:21.678Z,2.83
2022-08-31T20:42:51.538Z,2.53
2022-08-31T20:45:20.095Z,2.80
2022-08-31T20:48:06.468Z,2.60
2022-08-31T20:50:36.795Z,1.70
2022-08-31T20:53:07.106Z,1.97
2022-08-31T20:55:35.476Z,2.00
2022-08-31T20:58:04.130Z,2.00
2022-08-31T21:00:33.456Z,1.80
2022-08-31T21:03:02.544Z,2.00
2022-08-31T21:05:39.165Z,1.60
2022-08-31T21:08:09.243Z,1.73
2022-08-31T21:10:40.190Z,1.80
2022-08-31T21:13:09.220Z,1.60
2022-08-31T21:15:41.975Z,2.10
2022-08-31T21:18:10.491Z,1.40
2022-08-31T21:20:39.280Z,1.53
2022-08-31T21:23:10.489Z,1.80
2022-08-31T21:25:45.185Z,1.70
2022-08-31T21:28:14.553Z,1.63
2022-08-31T21:30:43.879Z,1.90
2022-08-31T21:33:12.600Z,1.70
2022-08-31T21:35:41.262Z,1.50
2022-08-31T21:38:12.300Z,1.73
2022-08-31T21:40:41.081Z,1.70
2022-08-31T21:43:09.980Z,1.60
2022-08-31T21:45:38.460Z,1.87
2022-08-31T21:48:06.986Z,1.53
2022-08-31T21:50:35.359Z,1.60
2022-08-31T21:53:04.743Z,1.60
2022-08-31T21:55:39.008Z,1.40
2022-08-31T21:58:07.504Z,2.00
2022-08-31T22:00:42.635Z,1.60
2022-08-31T22:03:12.770Z,1.80
2022-08-31T22:05:41.726Z,1.70
2022-08-31T22:08:10.327Z,1.57
2022-08-31T22:10:44.244Z,1.43
2022-08-31T22:13:13.510Z,1.60
2022-08-31T22:15:42.759Z,1.60
2022-08-31T22:18:58.323Z,1.67
2022-08-31T22:20:59.692Z,1.50
2022-08-31T22:23:28.010Z,1.47
2022-08-31T22:25:57.938Z,1.50
2022-08-31T22:28:27.767Z,1.40
2022-08-31T22:30:56.379Z,1.50
2022-08-31T22:33:24.979Z,1.80
2022-08-31T22:35:53.450Z,2.17
2022-08-31T22:38:21.899Z,1.80
2022-08-31T22:40:51.103Z,1.50
2022-08-31T22:43:21.147Z,1.80
2022-08-31T22:45:49.516Z,1.50
2022-08-31T22:48:18.204Z,1.57
2022-08-31T22:50:46.755Z,1.23
2022-08-31T22:53:15.168Z,1.47
2022-08-31T22:55:43.622Z,1.63
2022-08-31T22:58:12.533Z,1.80
2022-08-31T23:00:48.147Z,1.50
2022-08-31T23:03:16.597Z,1.80
2022-08-31T23:05:45.148Z,1.47
2022-08-31T23:08:13.948Z,1.70
2022-08-31T23:10:43.021Z,1.50
2022-08-31T23:13:11.353Z,1.50
2022-08-31T23:15:40.183Z,1.50
2022-08-31T23:18:10.541Z,1.67
2022-08-31T23:20:39.091Z,1.50
2022-08-31T23:23:07.661Z,1.47
2022-08-31T23:25:36.023Z,1.40
2022-08-31T23:28:04.746Z,1.80
2022-08-31T23:30:33.113Z,1.80
2022-08-31T23:33:02.981Z,1.70
2022-08-31T23:35:32.892Z,1.60
2022-08-31T23:38:01.643Z,1.70
2022-08-31T23:40:32.683Z,1.70
2022-08-31T23:43:02.080Z,1.50
2022-08-31T23:45:30.454Z,2.00
2022-08-31T23:47:58.896Z,1.50
2022-08-31T23:50:28.056Z,1.80
2022-08-31T23:52:57.826Z,1.70
2022-08-31T23:55:31.178Z,1.73
2022-08-31T23:57:59.540Z,2.10
